createdAt,value
2022-08-17T00:00:43.466Z,5.93
2022-08-17T00:03:18.953Z,6.23
2022-08-17T00:05:52.205Z,5.90
2022-08-17T00:08:23.427Z,5.60
2022-08-17T00:10:54.238Z,6.30
2022-08-17T00:13:27.795Z,6.30
2022-08-17T00:15:59.779Z,6.13
2022-08-17T00:19:06.629Z,5.80
2022-08-17T00:21:25.279Z,7.13
2022-08-17T00:23:55.098Z,5.87
2022-08-17T00:26:44.544Z,5.77
2022-08-17T00:29:17.875Z,6.13
2022-08-17T00:31:48.592Z,6.03
2022-08-17T00:34:18.997Z,5.73
2022-08-17T00:36:47.359Z,5.60
2022-08-17T00:39:15.783Z,6.10
2022-08-17T00:41:44.653Z,5.83
2022-08-17T00:44:13.292Z,6.03
2022-08-17T00:46:44.225Z,5.30
2022-08-17T00:49:15.560Z,6.03
2022-08-17T00:51:51.429Z,6.33
2022-08-17T00:54:25.641Z,6.10
2022-08-17T00:57:01.559Z,6.10
2022-08-17T00:59:35.692Z,9.83
2022-08-17T01:02:05.461Z,5.80
2022-08-17T01:04:34.693Z,6.10
2022-08-17T01:07:06.753Z,8.00
2022-08-17T01:09:35.665Z,6.07
2022-08-17T01:12:06.628Z,5.57
2022-08-17T01:14:37.835Z,5.70
2022-08-17T01:17:07.981Z,6.30
2022-08-17T01:19:40.264Z,6.30
2022-08-17T01:22:22.224Z,6.90
2022-08-17T01:24:59.126Z,6.30
2022-08-17T01:27:28.193Z,6.07
2022-08-17T01:30:02.841Z,6.27
2022-08-17T01:32:31.876Z,6.47
2022-08-17T01:35:01.833Z,5.80
2022-08-17T01:37:35.543Z,5.63
2022-08-17T01:40:11.037Z,7.33
2022-08-17T01:42:46.711Z,5.50
2022-08-17T01:45:19.619Z,5.80
2022-08-17T01:47:47.962Z,5.57
2022-08-17T01:50:20.357Z,5.37
2022-08-17T01:52:57.434Z,6.13
2022-08-17T01:55:32.325Z,5.50
2022-08-17T01:58:02.216Z,6.80
2022-08-17T02:00:54.458Z,6.37
2022-08-17T02:03:20.044Z,5.80
2022-08-17T02:05:49.390Z,6.30
2022-08-17T02:08:20.655Z,5.90
2022-08-17T02:11:11.582Z,6.53
2022-08-17T02:13:40.732Z,11.00
2022-08-17T02:16:09.606Z,5.50
2022-08-17T02:18:38.365Z,5.93
2022-08-17T02:21:08.112Z,5.47
2022-08-17T02:23:43.538Z,5.10
2022-08-17T02:26:25.997Z,6.03
2022-08-17T02:28:55.129Z,5.57
2022-08-17T02:31:23.627Z,6.47
2022-08-17T02:34:00.473Z,6.00
2022-08-17T02:36:34.462Z,5.50
2022-08-17T02:39:06.409Z,6.27
2022-08-17T02:41:34.941Z,6.30
2022-08-17T02:44:03.635Z,5.43
2022-08-17T02:46:32.346Z,5.13
2022-08-17T02:49:01.139Z,5.50
2022-08-17T02:51:29.700Z,6.17
2022-08-17T02:54:38.804Z,5.53
2022-08-17T02:56:48.072Z,5.40
2022-08-17T02:59:16.463Z,6.17
2022-08-17T03:01:44.951Z,4.97
2022-08-17T03:04:13.594Z,6.30
2022-08-17T03:06:42.021Z,5.80
2022-08-17T03:09:10.499Z,8.43
2022-08-17T03:11:38.903Z,5.87
2022-08-17T03:14:08.759Z,6.50
2022-08-17T03:16:37.214Z,6.63
2022-08-17T03:19:07.759Z,5.90
2022-08-17T03:21:36.285Z,5.43
2022-08-17T03:24:08.970Z,5.67
2022-08-17T03:26:37.742Z,5.50
2022-08-17T03:29:06.198Z,5.20
2022-08-17T03:31:37.227Z,5.90
2022-08-17T03:34:06.078Z,5.07
2022-08-17T03:36:36.069Z,4.60
2022-08-17T03:39:05.394Z,5.17
2022-08-17T03:41:33.938Z,5.43
2022-08-17T03:44:02.624Z,5.43
2022-08-17T03:46:48.553Z,4.97
2022-08-17T03:49:35.696Z,5.57
2022-08-17T03:52:22.056Z,9.83
2022-08-17T03:55:10.286Z,5.17
2022-08-17T03:57:39.029Z,5.80
2022-08-17T04:00:09.338Z,6.10
2022-08-17T04:02:41.819Z,5.67
2022-08-17T04:05:11.681Z,6.30
2022-08-17T04:07:40.062Z,5.80
2022-08-17T04:10:09.673Z,6.13
2022-08-17T04:12:48.805Z,6.30
2022-08-17T04:15:18.637Z,5.47
2022-08-17T04:17:47.014Z,5.63
2022-08-17T04:20:19.061Z,5.50
2022-08-17T04:22:59.402Z,6.23
2022-08-17T04:25:28.414Z,5.83
2022-08-17T04:27:56.969Z,5.90
2022-08-17T04:30:25.967Z,7.70
2022-08-17T04:33:04.320Z,8.57
2022-08-17T04:35:41.166Z,5.13
2022-08-17T04:38:13.091Z,5.70
2022-08-17T04:40:59.517Z,5.87
2022-08-17T04:43:30.034Z,6.20
2022-08-17T04:46:02.869Z,5.00
2022-08-17T04:48:36.207Z,6.93
2022-08-17T04:51:11.781Z,5.47
2022-08-17T04:53:42.240Z,6.60
2022-08-17T04:56:17.067Z,5.20
2022-08-17T04:58:50.241Z,6.17
2022-08-17T05:01:23.624Z,6.83
2022-08-17T05:03:54.168Z,6.00
2022-08-17T05:06:24.934Z,6.50
2022-08-17T05:08:54.013Z,6.23
2022-08-17T05:11:23.500Z,6.40
2022-08-17T05:13:52.031Z,7.83
2022-08-17T05:16:21.783Z,6.00
2022-08-17T05:18:50.455Z,8.20
2022-08-17T05:21:20.130Z,6.47
2022-08-17T05:23:53.252Z,6.67
2022-08-17T05:26:26.516Z,6.73
2022-08-17T05:29:02.579Z,6.60
2022-08-17T05:31:32.405Z,7.83
2022-08-17T05:34:00.802Z,6.37
2022-08-17T05:36:41.862Z,12.30
2022-08-17T05:39:16.108Z,9.77
2022-08-17T05:41:47.846Z,6.73
2022-08-17T05:44:16.879Z,7.50
2022-08-17T05:46:50.693Z,7.80
2022-08-17T05:49:24.679Z,6.40
2022-08-17T05:52:18.851Z,5.97
2022-08-17T05:55:11.456Z,6.77
2022-08-17T05:57:55.905Z,10.30
2022-08-17T06:00:30.690Z,37.20
2022-08-17T06:03:23.301Z,25.70
2022-08-17T06:06:02.811Z,9.23
2022-08-17T06:08:41.190Z,6.00
2022-08-17T06:11:24.079Z,6.20
2022-08-17T06:14:14.937Z,6.40
2022-08-17T06:16:47.355Z,6.17
2022-08-17T06:19:20.508Z,6.00
2022-08-17T06:21:52.670Z,5.90
2022-08-17T06:24:29.324Z,8.60
2022-08-17T06:27:03.783Z,6.03
2022-08-17T06:29:44.020Z,6.10
2022-08-17T06:32:14.410Z,4.77
2022-08-17T06:34:44.718Z,6.60
2022-08-17T06:37:48.961Z,6.03
2022-08-17T06:40:39.062Z,5.87
2022-08-17T06:43:48.025Z,7.57
2022-08-17T06:46:25.441Z,6.50
2022-08-17T06:49:10.914Z,6.70
2022-08-17T06:51:43.312Z,8.00
2022-08-17T06:54:20.551Z,8.50
2022-08-17T06:56:55.386Z,7.33
2022-08-17T06:59:53.260Z,8.67
2022-08-17T07:02:51.218Z,10.10
2022-08-17T07:05:26.885Z,9.70
2022-08-17T07:08:03.040Z,8.17
2022-08-17T07:10:40.644Z,14.60
2022-08-17T07:13:32.617Z,10.20
2022-08-17T07:16:15.427Z,8.37
2022-08-17T07:18:44.827Z,10.93
2022-08-17T07:21:29.716Z,9.80
2022-08-17T07:24:29.852Z,9.73
2022-08-17T07:27:15.745Z,9.30
2022-08-17T07:29:51.314Z,7.53
2022-08-17T07:32:26.734Z,10.60
2022-08-17T07:35:15.609Z,12.43
2022-08-17T07:37:53.109Z,12.07
2022-08-17T07:40:34.964Z,7.13
2022-08-17T07:43:18.790Z,13.07
2022-08-17T07:46:31.959Z,9.30
2022-08-17T07:49:23.347Z,9.50
2022-08-17T07:52:13.404Z,7.40
2022-08-17T07:54:50.914Z,7.47
2022-08-17T07:57:34.011Z,7.93
2022-08-17T08:00:19.576Z,7.57
2022-08-17T08:03:13.264Z,6.97
2022-08-17T08:05:54.902Z,8.63
2022-08-17T08:08:30.239Z,8.47
2022-08-17T08:11:08.242Z,8.13
2022-08-17T08:13:42.646Z,8.47
2022-08-17T08:16:24.766Z,8.60
2022-08-17T08:18:57.948Z,10.67
2022-08-17T08:21:41.824Z,7.83
2022-08-17T08:24:48.936Z,8.20
2022-08-17T08:27:35.676Z,8.70
2022-08-17T08:30:09.641Z,8.17
2022-08-17T08:32:57.849Z,7.93
2022-08-17T08:35:33.825Z,8.73
2022-08-17T08:38:16.800Z,8.00
2022-08-17T08:41:01.454Z,11.40
2022-08-17T08:43:42.646Z,11.77
2022-08-17T08:46:20.879Z,13.20
2022-08-17T08:49:39.091Z,10.50
2022-08-17T08:52:38.417Z,8.17
2022-08-17T08:55:19.000Z,7.33
2022-08-17T08:57:56.356Z,8.57
2022-08-17T09:00:27.358Z,8.73
2022-08-17T09:03:42.577Z,8.80
2022-08-17T09:06:39.312Z,14.60
2022-08-17T09:09:25.412Z,8.23
2022-08-17T09:12:05.648Z,7.53
2022-08-17T09:14:46.638Z,8.83
2022-08-17T09:17:19.239Z,8.60
2022-08-17T09:19:51.845Z,9.43
2022-08-17T09:22:31.764Z,8.73
2022-08-17T09:25:08.731Z,9.90
2022-08-17T09:27:54.639Z,9.80
2022-08-17T09:30:24.973Z,10.93
2022-08-17T09:33:00.610Z,8.33
2022-08-17T09:35:36.936Z,8.60
2022-08-17T09:38:21.345Z,8.27
2022-08-17T09:40:54.631Z,8.97
2022-08-17T09:43:34.818Z,9.37
2022-08-17T09:46:11.223Z,9.70
2022-08-17T09:48:46.247Z,8.00
2022-08-17T09:51:23.057Z,8.63
2022-08-17T09:53:52.315Z,9.50
2022-08-17T09:56:42.320Z,9.17
2022-08-17T09:59:38.436Z,7.90
2022-08-17T10:02:28.973Z,8.80
2022-08-17T10:05:03.891Z,8.77
2022-08-17T10:07:40.997Z,9.83
2022-08-17T10:10:17.485Z,11.30
2022-08-17T10:12:55.146Z,8.60
2022-08-17T10:15:42.490Z,7.50
2022-08-17T10:18:34.341Z,8.80
2022-08-17T10:21:25.175Z,9.23
2022-08-17T10:24:21.746Z,10.30
2022-08-17T10:26:56.503Z,9.07
2022-08-17T10:29:46.156Z,8.50
2022-08-17T10:32:32.355Z,9.10
2022-08-17T10:35:34.563Z,9.80
2022-08-17T10:38:42.800Z,10.23
2022-08-17T10:41:26.954Z,8.57
2022-08-17T10:44:40.051Z,8.37
2022-08-17T10:47:08.513Z,8.73
2022-08-17T10:49:47.826Z,7.63
2022-08-17T10:52:51.944Z,7.33
2022-08-17T10:55:21.476Z,8.80
2022-08-17T10:57:54.837Z,10.53
2022-08-17T11:01:11.449Z,7.63
2022-08-17T11:03:54.697Z,7.77
2022-08-17T11:06:36.705Z,8.60
2022-08-17T11:09:34.931Z,10.10
2022-08-17T11:12:16.898Z,9.87
2022-08-17T11:15:08.453Z,9.30
2022-08-17T11:18:20.481Z,13.60
2022-08-17T11:21:40.419Z,10.00
2022-08-17T11:24:19.230Z,10.73
2022-08-17T11:27:05.886Z,9.53
2022-08-17T11:29:40.528Z,8.23
2022-08-17T11:32:13.393Z,8.80
2022-08-17T11:34:44.622Z,8.00
2022-08-17T11:37:37.586Z,8.60
2022-08-17T11:40:34.029Z,8.50
2022-08-17T11:44:16.076Z,8.80
2022-08-17T11:47:23.472Z,7.97
2022-08-17T11:50:55.447Z,13.07
2022-08-17T11:57:02.274Z,8.50
2022-08-17T12:00:01.551Z,8.43
2022-08-17T12:02:48.287Z,11.57
2022-08-17T12:05:34.315Z,12.67
2022-08-17T12:08:21.301Z,8.00
2022-08-17T12:11:08.015Z,7.20
2022-08-17T12:13:46.072Z,8.07
2022-08-17T12:16:16.867Z,7.40
2022-08-17T12:18:52.597Z,7.30
2022-08-17T12:21:46.315Z,6.90
2022-08-17T12:24:32.364Z,6.23
2022-08-17T12:27:05.446Z,6.67
2022-08-17T12:29:38.338Z,7.80
2022-08-17T12:32:17.491Z,7.53
2022-08-17T12:34:49.199Z,7.73
2022-08-17T12:37:22.286Z,9.07
2022-08-17T12:39:58.618Z,9.83
2022-08-17T12:42:31.645Z,14.00
2022-08-17T12:45:00.477Z,13.97
2022-08-17T12:47:30.463Z,9.63
2022-08-17T12:50:28.458Z,7.93
2022-08-17T12:53:01.946Z,7.50
2022-08-17T12:55:37.381Z,6.80
2022-08-17T12:58:14.396Z,8.63
2022-08-17T13:00:51.114Z,5.90
2022-08-17T13:03:23.926Z,9.73
2022-08-17T13:06:01.729Z,13.20
2022-08-17T13:08:36.118Z,5.87
2022-08-17T13:11:09.413Z,6.13
2022-08-17T13:13:43.448Z,6.23
2022-08-17T13:16:20.304Z,7.47
2022-08-17T13:18:51.407Z,6.13
2022-08-17T13:21:30.386Z,6.63
2022-08-17T13:24:02.611Z,7.07
2022-08-17T13:26:35.050Z,6.63
2022-08-17T13:29:08.814Z,6.03
2022-08-17T13:31:51.956Z,6.07
2022-08-17T13:34:38.117Z,7.23
2022-08-17T13:37:30.373Z,5.67
2022-08-17T13:40:05.060Z,5.70
2022-08-17T13:42:50.444Z,6.73
2022-08-17T13:45:54.619Z,6.50
2022-08-17T13:48:28.212Z,10.30
2022-08-17T13:51:29.172Z,6.10
2022-08-17T13:54:03.521Z,5.87
2022-08-17T13:56:40.487Z,5.60
2022-08-17T13:59:13.005Z,5.37
2022-08-17T14:01:51.068Z,5.73
2022-08-17T14:04:31.732Z,6.63
2022-08-17T14:07:05.043Z,6.27
2022-08-17T14:09:37.580Z,6.03
2022-08-17T14:12:11.578Z,5.00
2022-08-17T14:14:40.814Z,4.53
2022-08-17T14:17:11.003Z,5.97
2022-08-17T14:19:40.251Z,6.27
2022-08-17T14:22:13.799Z,5.90
2022-08-17T14:24:45.058Z,5.77
2022-08-17T14:27:13.821Z,5.97
2022-08-17T14:29:42.553Z,5.83
2022-08-17T14:32:19.428Z,5.40
2022-08-17T14:34:49.650Z,5.03
2022-08-17T14:37:18.542Z,5.97
2022-08-17T14:39:47.342Z,7.20
2022-08-17T14:42:18.528Z,5.00
2022-08-17T14:44:47.063Z,5.73
2022-08-17T14:47:16.980Z,5.20
2022-08-17T14:49:48.358Z,5.33
2022-08-17T14:52:21.797Z,5.60
2022-08-17T14:54:51.339Z,6.83
2022-08-17T14:57:32.921Z,4.57
2022-08-17T15:00:04.727Z,5.33
2022-08-17T15:02:47.139Z,5.13
2022-08-17T15:05:18.188Z,5.93
2022-08-17T15:07:46.832Z,5.30
2022-08-17T15:10:16.797Z,5.10
2022-08-17T15:12:45.534Z,6.30
2022-08-17T15:15:17.328Z,4.53
2022-08-17T15:17:47.435Z,5.20
2022-08-17T15:20:18.954Z,4.80
2022-08-17T15:22:50.554Z,4.70
2022-08-17T15:25:22.169Z,5.73
2022-08-17T15:27:51.183Z,6.03
2022-08-17T15:30:20.035Z,5.57
2022-08-17T15:32:55.087Z,4.93
2022-08-17T15:35:28.593Z,5.43
2022-08-17T15:38:07.886Z,4.90
2022-08-17T15:40:43.185Z,5.93
2022-08-17T15:43:16.161Z,5.20
2022-08-17T15:45:58.650Z,4.70
2022-08-17T15:48:41.923Z,5.77
2022-08-17T15:51:14.274Z,7.43
2022-08-17T15:53:46.447Z,6.50
2022-08-17T15:56:16.157Z,5.63
2022-08-17T15:58:46.764Z,7.00
2022-08-17T16:01:27.848Z,5.30
2022-08-17T16:04:27.000Z,5.17
2022-08-17T16:06:56.521Z,5.30
2022-08-17T16:09:24.951Z,5.10
2022-08-17T16:11:55.176Z,5.70
2022-08-17T16:14:24.493Z,5.87
2022-08-17T16:16:59.349Z,5.90
2022-08-17T16:19:29.139Z,6.40
2022-08-17T16:21:57.659Z,5.67
2022-08-17T16:24:26.103Z,5.40
2022-08-17T16:26:55.377Z,5.70
2022-08-17T16:29:24.498Z,5.70
2022-08-17T16:31:53.452Z,6.40
2022-08-17T16:34:22.060Z,5.43
2022-08-17T16:36:55.365Z,6.20
2022-08-17T16:39:27.258Z,5.37
2022-08-17T16:41:56.437Z,5.57
2022-08-17T16:44:26.025Z,5.03
2022-08-17T16:46:54.809Z,7.63
2022-08-17T16:49:35.969Z,5.20
2022-08-17T16:52:11.263Z,4.60
2022-08-17T16:54:43.608Z,5.17
2022-08-17T16:57:13.323Z,5.57
2022-08-17T16:59:47.460Z,5.27
2022-08-17T17:02:25.221Z,6.00
2022-08-17T17:04:59.399Z,6.57
2022-08-17T17:07:56.960Z,5.37
2022-08-17T17:10:30.205Z,6.23
2022-08-17T17:13:02.209Z,5.30
2022-08-17T17:15:55.751Z,5.93
2022-08-17T17:18:37.381Z,11.80
2022-08-17T17:21:10.636Z,6.00
2022-08-17T17:23:54.811Z,5.83
2022-08-17T17:26:59.066Z,6.80
2022-08-17T17:29:47.456Z,6.10
2022-08-17T17:32:23.093Z,5.40
2022-08-17T17:34:56.282Z,5.43
2022-08-17T17:37:33.281Z,5.33
2022-08-17T17:40:09.439Z,6.10
2022-08-17T17:42:43.319Z,6.20
2022-08-17T17:45:20.089Z,5.93
2022-08-17T17:47:49.038Z,5.93
2022-08-17T17:50:20.685Z,5.60
2022-08-17T17:53:03.353Z,5.70
2022-08-17T17:55:44.162Z,5.40
2022-08-17T17:58:29.422Z,5.60
2022-08-17T18:01:18.962Z,5.67
2022-08-17T18:04:05.424Z,5.60
2022-08-17T18:07:06.155Z,6.70
2022-08-17T18:10:05.449Z,6.77
2022-08-17T18:12:57.825Z,6.23
2022-08-17T18:15:31.430Z,8.50
2022-08-17T18:18:31.790Z,5.57
2022-08-17T18:21:06.521Z,5.80
2022-08-17T18:23:35.427Z,6.80
2022-08-17T18:26:03.940Z,5.60
2022-08-17T18:28:38.440Z,6.57
2022-08-17T18:31:19.246Z,7.00
2022-08-17T18:33:51.380Z,8.70
2022-08-17T18:36:30.231Z,6.30
2022-08-17T18:39:16.567Z,7.90
2022-08-17T18:41:47.676Z,6.47
2022-08-17T18:44:29.017Z,6.13
2022-08-17T18:47:14.916Z,8.00
2022-08-17T18:49:47.251Z,9.53
2022-08-17T18:52:19.629Z,7.97
2022-08-17T18:55:09.749Z,8.40
2022-08-17T18:57:42.534Z,7.73
2022-08-17T19:00:37.196Z,8.00
2022-08-17T19:03:24.564Z,10.77
2022-08-17T19:05:56.449Z,8.17
2022-08-17T19:08:36.603Z,7.93
2022-08-17T19:11:10.339Z,7.40
2022-08-17T19:13:44.418Z,9.10
2022-08-17T19:16:20.188Z,7.67
2022-08-17T19:18:58.249Z,7.90
2022-08-17T19:21:34.313Z,7.90
2022-08-17T19:24:11.208Z,9.73
2022-08-17T19:26:53.374Z,7.50
2022-08-17T19:29:34.227Z,8.43
2022-08-17T19:32:05.417Z,7.73
2022-08-17T19:34:38.038Z,7.90
2022-08-17T19:37:13.423Z,11.07
2022-08-17T19:39:52.403Z,10.77
2022-08-17T19:42:41.251Z,10.37
2022-08-17T19:45:17.832Z,9.80
2022-08-17T19:47:55.592Z,10.60
2022-08-17T19:50:39.115Z,9.20
2022-08-17T19:53:21.044Z,10.60
2022-08-17T19:56:02.518Z,10.63
2022-08-17T19:58:49.069Z,9.33
2022-08-17T20:01:34.908Z,11.33
2022-08-17T20:04:13.711Z,9.40
2022-08-17T20:06:46.896Z,12.73
2022-08-17T20:09:24.218Z,10.13
2022-08-17T20:12:08.564Z,9.97
2022-08-17T20:14:53.740Z,11.43
2022-08-17T20:17:28.496Z,10.60
2022-08-17T20:20:07.650Z,11.83
2022-08-17T20:22:55.899Z,10.33
2022-08-17T20:25:32.631Z,10.13
2022-08-17T20:28:12.620Z,11.00
2022-08-17T20:30:43.979Z,10.73
2022-08-17T20:33:27.132Z,10.87
2022-08-17T20:36:15.731Z,12.13
2022-08-17T20:38:47.616Z,11.40
2022-08-17T20:41:20.794Z,11.60
2022-08-17T20:44:06.797Z,11.23
2022-08-17T20:46:58.303Z,11.43
2022-08-17T20:49:34.951Z,11.77
2022-08-17T20:52:09.138Z,12.00
2022-08-17T20:54:51.340Z,9.87
2022-08-17T20:57:48.642Z,9.53
2022-08-17T21:00:45.228Z,9.83
2022-08-17T21:03:52.180Z,8.57
2022-08-17T21:06:24.510Z,9.07
2022-08-17T21:08:59.068Z,10.40
2022-08-17T21:12:05.238Z,9.77
2022-08-17T21:14:59.710Z,10.60
2022-08-17T21:17:59.231Z,9.47
2022-08-17T21:20:40.772Z,9.17
2022-08-17T21:23:45.006Z,9.47
2022-08-17T21:26:29.670Z,9.23
2022-08-17T21:29:31.309Z,8.63
2022-08-17T21:32:24.214Z,10.83
2022-08-17T21:35:30.423Z,8.97
2022-08-17T21:38:05.175Z,10.33
2022-08-17T21:40:35.102Z,8.90
2022-08-17T21:43:24.074Z,9.47
2022-08-17T21:46:01.901Z,9.10
2022-08-17T21:48:33.459Z,7.93
2022-08-17T21:51:13.975Z,12.07
2022-08-17T21:53:56.787Z,8.80
2022-08-17T21:56:30.348Z,8.57
2022-08-17T21:59:04.128Z,9.60
2022-08-17T22:01:36.274Z,8.20
2022-08-17T22:04:20.171Z,8.37
2022-08-17T22:06:52.592Z,8.23
2022-08-17T22:09:29.012Z,7.70
2022-08-17T22:12:09.090Z,8.30
2022-08-17T22:14:52.979Z,8.10
2022-08-17T22:17:25.384Z,10.37
2022-08-17T22:19:59.062Z,9.00
2022-08-17T22:22:55.853Z,9.93
2022-08-17T22:25:27.279Z,8.50
2022-08-17T22:27:59.792Z,8.77
2022-08-17T22:30:34.715Z,8.50
2022-08-17T22:33:31.950Z,8.77
2022-08-17T22:36:22.120Z,9.07
2022-08-17T22:38:51.565Z,10.20
2022-08-17T22:41:39.174Z,11.87
2022-08-17T22:44:24.502Z,8.63
2022-08-17T22:47:06.715Z,8.87
2022-08-17T22:49:53.334Z,13.40
2022-08-17T22:52:35.426Z,9.00
2022-08-17T22:55:33.051Z,8.57
2022-08-17T22:58:19.812Z,11.43
2022-08-17T23:00:51.100Z,10.60
2022-08-17T23:03:23.242Z,8.60
2022-08-17T23:06:08.201Z,11.03
2022-08-17T23:08:45.374Z,9.90
2022-08-17T23:11:15.047Z,9.57
2022-08-17T23:13:44.391Z,9.50
2022-08-17T23:16:14.908Z,8.80
2022-08-17T23:18:47.973Z,8.40
2022-08-17T23:21:16.509Z,8.77
2022-08-17T23:23:56.068Z,8.20
2022-08-17T23:26:26.959Z,10.03
2022-08-17T23:28:55.413Z,8.97
2022-08-17T23:31:25.934Z,9.57
2022-08-17T23:33:55.882Z,9.57
2022-08-17T23:36:24.359Z,9.17
2022-08-17T23:38:54.551Z,10.70
2022-08-17T23:41:26.847Z,9.50
2022-08-17T23:43:55.417Z,9.73
2022-08-17T23:46:25.101Z,10.07
2022-08-17T23:48:54.899Z,9.67
2022-08-17T23:51:28.907Z,10.90
2022-08-17T23:54:07.996Z,9.80
2022-08-17T23:56:41.977Z,13.00
2022-08-17T23:59:10.338Z,10.77
